Southern Utah University
, Cedar City
Last Weather Update:07/30/2011 11:00:00 PM
Date
ETo
ETc
Rain
Irrigation
Req
Temp
Max
Temp
Min
Temp
Avg
Avg RH
Avg Wind
Avg Solar
inches
inches
incehs
inches
F
F
F
%
%
watts/m2
06/01/2011 0.28" 0.23" 0.00" 0.23" 73.6° 49.5° 62.9° 14.5% 9.4 MPH 285.4w/m2
06/02/2011 0.26" 0.21" 0.00" 0.21" 65.0° 45.2° 56.2° 16.1% 7.0 MPH 360.4w/m2
06/03/2011 0.21" 0.17" 0.00" 0.17" 71.6° 36.2° 53.1° 31.5% 2.8 MPH 353.7w/m2
06/04/2011 0.27" 0.21" 0.00" 0.21" 78.8° 43.0° 61.2° 27.8% 5.8 MPH 334.3w/m2
06/05/2011 0.33" 0.27" 0.00" 0.27" 82.3° 52.3° 69.7° 13.7% 7.9 MPH 364.3w/m2
06/06/2011 0.33" 0.26" 0.00" 0.26" 70.3° 51.4° 65.0° 19.4% 12.4 MPH 363.7w/m2
06/07/2011 0.25" 0.20" 0.00" 0.20" 74.2° 44.2° 60.7° 26.3% 3.8 MPH 365.6w/m2
06/08/2011 0.26" 0.21" 0.00" 0.21" 72.5° 47.2° 61.4° 23.7% 4.9 MPH 365.9w/m2
06/09/2011 0.25" 0.20" 0.00" 0.20" 76.4° 45.0° 62.6° 27.7% 3.3 MPH 362.3w/m2
06/10/2011 0.26" 0.21" 0.00" 0.21" 79.8° 45.1° 64.0° 29.4% 4.1 MPH 362.3w/m2
06/11/2011 0.29" 0.23" 0.00" 0.23" 78.2° 55.5° 67.9° 20.2% 5.6 MPH 361.5w/m2
06/12/2011 0.23" 0.19" 0.00" 0.19" 76.1° 52.4° 66.1° 19.6% 4.9 MPH 279.8w/m2
06/13/2011 0.26" 0.21" 0.00" 0.21" 79.0° 51.2° 67.1° 21.8% 3.9 MPH 348.0w/m2
06/14/2011 0.24" 0.19" 0.00" 0.19" 83.3° 53.3° 69.0° 31.9% 2.2 MPH 364.1w/m2
06/15/2011 0.31" 0.24" 0.00" 0.24" 86.4° 58.4° 74.3° 24.4% 4.9 MPH 362.6w/m2
06/16/2011 0.34" 0.27" 0.01" 0.26" 82.8° 57.6° 73.3° 25.1% 9.2 MPH 352.6w/m2
06/17/2011 0.16" 0.13" 0.00" 0.13" 75.4° 50.2° 61.3° 35.1% 2.5 MPH 227.6w/m2
06/18/2011 0.28" 0.22" 0.00" 0.22" 80.3° 51.7° 68.4° 27.1% 4.9 MPH 333.3w/m2
06/19/2011 0.15" 0.12" 0.55" -0.32" 70.8° 45.1° 58.1° 51.0% 6.1 MPH 208.3w/m2
06/20/2011 0.24" 0.19" 0.00" 0.19" 73.9° 44.1° 59.1° 50.3% 4.3 MPH 375.0w/m2
06/21/2011 0.25" 0.20" 0.00" 0.20" 84.1° 46.5° 66.0° 39.1% 2.6 MPH 370.3w/m2
06/22/2011 0.28" 0.22" 0.00" 0.22" 90.4° 53.1° 73.3° 26.5% 3.1 MPH 367.7w/m2
06/23/2011 0.32" 0.26" 0.00" 0.26" 89.2° 64.1° 78.6° 17.3% 5.5 MPH 370.3w/m2
06/24/2011 0.36" 0.29" 0.00" 0.29" 86.5° 65.9° 77.7° 14.7% 7.9 MPH 379.7w/m2
06/25/2011 0.35" 0.28" 0.00" 0.28" 85.4° 58.9° 74.5° 15.7% 7.1 MPH 384.0w/m2
06/26/2011 0.31" 0.25" 0.00" 0.25" 86.8° 62.0° 75.1° 13.8% 4.8 MPH 381.3w/m2
06/27/2011 0.31" 0.25" 0.14" 0.14" 89.3° 54.2° 73.4° 18.6% 4.7 MPH 380.9w/m2
06/28/2011 0.40" 0.32" 0.00" 0.32" 90.4° 68.5° 80.4° 15.3% 10.3 MPH 365.3w/m2
06/29/2011 0.40" 0.32" 0.00" 0.32" 86.1° 64.1° 79.3° 21.4% 12.1 MPH 358.4w/m2
06/30/2011 0.27" 0.21" 0.00" 0.21" 82.3° 57.5° 69.4° 28.6% 4.8 MPH 366.9w/m2
Totals: 8.44" 6.75" 0.70" 6.19" 90.4° 36.2° 67.6° 24.9% 5.8 MPH 348.5w/m2